Time;durP1;ratioP1;P1;durP2;ratioP2;P2;SDS_P1;SDS_P2;PMS_P1;PMS_P2;Temp;Humidity;BMP_temperature;BMP_pressure;BME280_temperature;BME280_humidity;BME280_pressure;Samples;Min_cycle;Max_cycle;Signal;HPM_P1;HPM_P2
2021/09/14 00:01:48;;;;;;;10.57;5.65;;;13.20;95.80;;;;;;5004238;28;20137;-53
2021/09/14 00:04:14;;;;;;;8.70;3.85;;;13.10;96.00;;;;;;5003746;28;20050;-54
2021/09/14 00:06:40;;;;;;;8.23;4.10;;;13.20;95.80;;;;;;4994306;28;20072;-54
2021/09/14 00:09:07;;;;;;;13.95;4.57;;;13.20;96.00;;;;;;4980759;28;20038;-54
2021/09/14 00:11:36;;;;;;;9.10;4.38;;;13.10;96.20;;;;;;5002783;28;20069;-53
2021/09/14 00:14:03;;;;;;;10.45;5.07;;;13.10;96.30;;;;;;4992755;28;20426;-54
2021/09/14 00:16:30;;;;;;;8.68;4.18;;;13.10;96.20;;;;;;4977280;28;20034;-53
2021/09/14 00:18:55;;;;;;;22.23;13.63;;;13.10;96.20;;;;;;4989642;28;20038;-54
2021/09/14 00:21:21;;;;;;;17.35;8.20;;;13.00;96.30;;;;;;4984654;28;20453;-54
2021/09/14 00:23:47;;;;;;;18.25;10.00;;;13.00;96.50;;;;;;4993347;28;20058;-54
2021/09/14 00:26:13;;;;;;;15.40;8.68;;;13.00;96.60;;;;;;4998456;28;20042;-53
2021/09/14 00:28:38;;;;;;;11.25;6.53;;;13.00;96.70;;;;;;5001046;28;20039;-53
2021/09/14 00:31:04;;;;;;;10.25;4.35;;;12.90;96.90;;;;;;4997261;28;20045;-52
2021/09/14 00:33:29;;;;;;;12.30;6.43;;;12.90;96.80;;;;;;5008223;28;20041;-54
2021/09/14 00:35:55;;;;;;;13.35;7.57;;;13.00;96.70;;;;;;5000880;28;20089;-54
2021/09/14 00:38:20;;;;;;;12.48;7.35;;;13.00;96.70;;;;;;5003880;28;20034;-55
2021/09/14 00:40:46;;;;;;;16.58;7.38;;;12.90;96.60;;;;;;4999933;28;20503;-55
2021/09/14 00:43:22;;;;;;;17.88;7.60;;;13.00;97.10;;;;;;5004719;28;20044;-53
2021/09/14 00:45:49;;;;;;;12.68;5.90;;;13.00;97.30;;;;;;5000860;28;20503;-54
2021/09/14 00:48:15;;;;;;;12.18;6.47;;;13.00;97.20;;;;;;5004182;28;20081;-54
2021/09/14 00:50:42;;;;;;;10.98;5.05;;;13.00;97.30;;;;;;4981663;28;20096;-53
2021/09/14 00:53:08;;;;;;;13.15;7.18;;;13.10;97.10;;;;;;4992167;28;20073;-54
2021/09/14 00:55:34;;;;;;;10.43;5.60;;;13.00;97.10;;;;;;4979872;28;20038;-54
2021/09/14 00:58:00;;;;;;;11.63;5.15;;;13.00;97.30;;;;;;4967177;28;20042;-54
2021/09/14 01:00:26;;;;;;;11.55;5.45;;;12.90;97.30;;;;;;5005975;28;20140;-51
2021/09/14 01:02:52;;;;;;;12.55;7.20;;;12.90;97.50;;;;;;5005670;28;20128;-50
2021/09/14 01:05:18;;;;;;;11.80;5.82;;;12.90;97.40;;;;;;4976175;28;20092;-53
2021/09/14 01:07:46;;;;;;;10.48;5.82;;;12.90;97.40;;;;;;4992451;28;20065;-54
2021/09/14 01:10:12;;;;;;;11.43;5.25;;;12.90;97.50;;;;;;4996084;28;20042;-53
2021/09/14 01:12:39;;;;;;;9.48;5.25;;;12.90;97.60;;;;;;4992242;28;20034;-53
2021/09/14 01:15:06;;;;;;;11.30;6.25;;;12.90;97.60;;;;;;4985345;28;20084;-50
2021/09/14 01:17:32;;;;;;;9.98;4.82;;;12.90;97.80;;;;;;4972765;28;20076;-54
2021/09/14 01:19:57;;;;;;;8.95;5.03;;;12.80;97.80;;;;;;5004848;28;20069;-54
2021/09/14 01:22:27;;;;;;;14.93;5.72;;;12.80;97.70;;;;;;5002270;28;20041;-53
2021/09/14 01:24:53;;;;;;;12.65;5.40;;;12.80;98.00;;;;;;4993478;28;20053;-53
2021/09/14 01:27:18;;;;;;;13.70;6.40;;;12.90;97.80;;;;;;4996133;28;20527;-51
2021/09/14 01:32:28;;;;;;;9.80;5.70;;;12.80;98.00;;;;;;4999107;28;20088;-54
2021/09/14 01:34:54;;;;;;;12.93;6.15;;;12.80;97.90;;;;;;4992618;28;20038;-54
2021/09/14 01:37:20;;;;;;;10.95;5.80;;;12.80;98.00;;;;;;4991937;28;20033;-54
2021/09/14 01:39:45;;;;;;;13.60;6.20;;;12.80;98.10;;;;;;5007339;28;20041;-51
2021/09/14 01:42:11;;;;;;;12.02;5.80;;;12.70;98.10;;;;;;5007660;28;20513;-53
2021/09/14 01:44:36;;;;;;;10.43;5.82;;;12.60;98.10;;;;;;4994415;28;20038;-54
2021/09/14 01:47:02;;;;;;;10.32;5.97;;;12.60;98.50;;;;;;4986244;28;20510;-54
2021/09/14 01:49:28;;;;;;;9.23;6.28;;;12.70;98.20;;;;;;4991602;28;20038;-53
2021/09/14 01:51:53;;;;;;;11.80;6.10;;;12.70;98.30;;;;;;5003728;28;20494;-50
2021/09/14 01:54:19;;;;;;;10.73;5.60;;;12.70;98.30;;;;;;5004431;28;20034;-53
2021/09/14 01:56:44;;;;;;;10.68;6.05;;;12.60;98.40;;;;;;5004197;28;20594;-54
2021/09/14 01:59:11;;;;;;;13.30;6.55;;;12.60;98.40;;;;;;4998111;28;20434;-50
2021/09/14 02:01:41;;;;;;;9.57;5.97;;;12.60;98.40;;;;;;4995133;28;20145;-51
2021/09/14 02:42:43;;;;;;;15.60;7.85;;;12.40;99.40;;;;;;5013450;28;20041;-49
2021/09/14 02:56:16;;;;;;;11.55;7.07;;;12.50;99.40;;;;;;4990380;28;20173;-50
2021/09/14 02:58:44;;;;;;;15.65;8.65;;;12.40;99.80;;;;;;4984684;28;20523;-50
2021/09/14 03:01:12;;;;;;;17.30;8.45;;;12.40;99.80;;;;;;5004535;28;20109;-50
2021/09/14 03:03:41;;;;;;;15.73;8.40;;;12.40;99.80;;;;;;5008246;28;20140;-50
2021/09/14 03:06:07;;;;;;;14.20;8.10;;;12.40;99.80;;;;;;5013451;28;20509;-52
2021/09/14 03:08:35;;;;;;;16.00;8.65;;;12.40;99.70;;;;;;4996059;28;20041;-52
2021/09/14 03:11:06;;;;;;;14.88;9.00;;;12.30;99.90;;;;;;4974340;28;20037;-53
2021/09/14 03:13:33;;;;;;;14.68;8.35;;;12.30;99.90;;;;;;5013571;28;20042;-51
2021/09/14 03:15:59;;;;;;;15.23;8.23;;;12.30;99.90;;;;;;5012843;28;20410;-50
2021/09/14 03:18:24;;;;;;;15.82;8.90;;;12.30;99.90;;;;;;4993576;28;20053;-51
2021/09/14 03:20:50;;;;;;;18.15;10.63;;;12.40;99.90;;;;;;4982833;28;20418;-53
2021/09/14 03:23:15;;;;;;;16.63;9.70;;;12.30;99.90;;;;;;5000608;28;20038;-53
2021/09/14 03:25:41;;;;;;;24.73;12.07;;;12.30;99.90;;;;;;5011893;28;20140;-50
2021/09/14 03:28:07;;;;;;;23.13;12.45;;;12.30;99.90;;;;;;5010286;28;20034;-51
2021/09/14 03:30:32;;;;;;;19.27;10.38;;;12.30;99.90;;;;;;5003647;28;20061;-52
2021/09/14 03:32:58;;;;;;;30.00;15.80;;;12.30;99.90;;;;;;4993855;28;20043;-54
2021/09/14 03:35:24;;;;;;;19.23;9.35;;;12.30;99.90;;;;;;4977695;28;20402;-52
2021/09/14 03:37:49;;;;;;;20.10;11.27;;;12.30;99.90;;;;;;4993904;28;20038;-52
2021/09/14 03:40:15;;;;;;;18.42;9.55;;;12.30;99.90;;;;;;4993559;28;20069;-53
2021/09/14 03:42:41;;;;;;;25.17;11.57;;;12.30;99.90;;;;;;4963467;28;20104;-53
2021/09/14 03:45:07;;;;;;;18.88;11.25;;;12.30;99.90;;;;;;5006037;28;20035;-53
2021/09/14 03:47:33;;;;;;;22.25;10.18;;;12.30;99.90;;;;;;4976039;28;20117;-51
2021/09/14 03:49:59;;;;;;;20.60;10.77;;;12.20;99.90;;;;;;4957936;28;20052;-53
2021/09/14 03:52:25;;;;;;;15.55;9.38;;;12.20;99.90;;;;;;5001713;28;20566;-51
2021/09/14 03:54:50;;;;;;;20.48;10.45;;;12.20;99.90;;;;;;4990297;28;20069;-53
2021/09/14 03:57:16;;;;;;;18.90;9.82;;;12.20;99.90;;;;;;5003574;28;20046;-51
2021/09/14 03:59:41;;;;;;;17.77;10.05;;;12.20;99.90;;;;;;4994933;28;20045;-51
2021/09/14 04:02:16;;;;;;;16.35;9.63;;;12.20;99.90;;;;;;4997080;28;20138;-54
2021/09/14 04:05:27;;;;;;;17.40;9.73;;;12.20;99.90;;;;;;4998023;28;20053;-53
2021/09/14 04:10:03;;;;;;;;;;;12.20;99.90;;;;;;4996693;28;20050;-51
2021/09/14 04:12:29;;;;;;;21.35;9.70;;;12.30;99.90;;;;;;5004212;28;19924;-51
2021/09/14 04:14:55;;;;;;;21.02;9.90;;;12.20;99.90;;;;;;4996383;28;20046;-51
2021/09/14 04:17:20;;;;;;;17.13;9.60;;;12.10;99.90;;;;;;5000886;28;20046;-53
2021/09/14 04:19:46;;;;;;;20.00;9.80;;;12.10;99.90;;;;;;4991379;28;20406;-53
2021/09/14 04:22:12;;;;;;;17.77;9.75;;;12.20;99.90;;;;;;5010809;28;20069;-53
2021/09/14 04:24:37;;;;;;;18.45;10.23;;;12.10;99.90;;;;;;4995448;28;20034;-50
2021/09/14 04:27:03;;;;;;;15.35;10.05;;;12.20;99.90;;;;;;5004547;28;20042;-49
2021/09/14 04:29:29;;;;;;;24.67;11.00;;;12.20;99.90;;;;;;5011921;28;20036;-50
2021/09/14 04:31:55;;;;;;;16.02;10.45;;;12.20;99.90;;;;;;4987073;28;20467;-52
2021/09/14 04:34:20;;;;;;;21.27;10.35;;;12.20;99.90;;;;;;5007589;28;20050;-53
2021/09/14 04:36:46;;;;;;;18.65;10.65;;;12.20;99.90;;;;;;5003119;28;20477;-53
2021/09/14 04:39:11;;;;;;;19.83;10.60;;;12.20;99.90;;;;;;5001527;28;20510;-51
2021/09/14 04:41:37;;;;;;;18.77;10.60;;;12.20;99.90;;;;;;5008442;28;20038;-54
2021/09/14 04:44:03;;;;;;;21.25;11.48;;;12.20;99.90;;;;;;5001224;28;20101;-52
2021/09/14 04:46:28;;;;;;;17.85;10.30;;;12.20;99.90;;;;;;4993177;28;20496;-51
2021/09/14 04:48:54;;;;;;;17.83;10.18;;;12.20;99.90;;;;;;4996185;28;20096;-54
2021/09/14 04:51:19;;;;;;;19.45;10.50;;;12.20;99.90;;;;;;5007656;28;20034;-51
2021/09/14 04:53:45;;;;;;;18.13;10.77;;;12.20;99.90;;;;;;4977114;28;20070;-52
2021/09/14 04:56:13;;;;;;;22.70;11.00;;;12.20;99.90;;;;;;4999348;28;20085;-51
2021/09/14 04:58:41;;;;;;;18.08;10.45;;;12.20;99.90;;;;;;4997181;28;20057;-53
2021/09/14 05:01:07;;;;;;;17.02;11.25;;;12.10;99.90;;;;;;4962669;28;20042;-50
2021/09/14 05:03:33;;;;;;;19.65;11.05;;;12.10;99.90;;;;;;4991237;28;20122;-50
2021/09/14 05:05:58;;;;;;;16.83;11.15;;;12.20;99.90;;;;;;5007447;28;20125;-53
2021/09/14 05:08:24;;;;;;;19.90;10.95;;;12.10;99.90;;;;;;4990962;28;20052;-54
2021/09/14 05:10:51;;;;;;;20.45;11.23;;;12.10;99.90;;;;;;5005704;28;20045;-51
2021/09/14 05:13:17;;;;;;;18.75;10.77;;;12.10;99.90;;;;;;5006806;28;20080;-51
2021/09/14 05:15:43;;;;;;;21.02;10.73;;;12.20;99.90;;;;;;4990730;28;20415;-54
2021/09/14 05:18:12;;;;;;;17.85;10.82;;;12.10;99.90;;;;;;5004389;28;20612;-51
2021/09/14 05:20:39;;;;;;;20.90;12.00;;;12.10;99.90;;;;;;5012040;28;20568;-54
2021/09/14 05:23:15;;;;;;;18.73;10.70;;;12.20;99.90;;;;;;4997956;28;20058;-53
2021/09/14 05:25:44;;;;;;;20.27;10.57;;;12.20;99.90;;;;;;5010905;28;20052;-53
2021/09/14 05:28:14;;;;;;;23.85;11.93;;;12.20;99.90;;;;;;5008418;28;20112;-55
2021/09/14 05:30:42;;;;;;;18.67;11.32;;;12.20;99.90;;;;;;4995210;28;20472;-54
2021/09/14 05:33:08;;;;;;;22.50;11.57;;;12.30;99.90;;;;;;4998777;28;20079;-52
2021/09/14 05:35:40;;;;;;;19.95;11.30;;;12.30;99.90;;;;;;5007618;28;20029;-51
2021/09/14 05:38:06;;;;;;;19.73;11.43;;;12.30;99.90;;;;;;5011410;28;20470;-53
2021/09/14 05:40:31;;;;;;;21.85;11.35;;;12.30;99.90;;;;;;5009680;28;20450;-53
2021/09/14 05:42:57;;;;;;;22.45;12.13;;;12.30;99.90;;;;;;5008860;28;20046;-53
2021/09/14 05:45:23;;;;;;;23.42;12.18;;;12.40;99.90;;;;;;4972329;28;20077;-51
2021/09/14 05:47:48;;;;;;;21.38;11.85;;;12.50;99.90;;;;;;5004315;28;20073;-51
2021/09/14 05:50:14;;;;;;;24.88;11.50;;;12.50;99.90;;;;;;5003962;28;20037;-54
2021/09/14 05:52:40;;;;;;;21.42;11.70;;;12.50;99.90;;;;;;4992557;28;20030;-52
2021/09/14 05:55:06;;;;;;;19.63;11.07;;;12.50;99.90;;;;;;4997385;28;20082;-52
2021/09/14 05:57:31;;;;;;;20.05;11.38;;;12.60;99.90;;;;;;4997637;28;20030;-53
2021/09/14 05:59:57;;;;;;;21.45;12.02;;;12.60;99.90;;;;;;4994082;28;20069;-52
2021/09/14 06:02:22;;;;;;;21.35;12.05;;;12.60;99.90;;;;;;5005800;28;20065;-52
2021/09/14 06:04:48;;;;;;;20.73;11.50;;;12.60;99.90;;;;;;5002632;28;20042;-52
2021/09/14 06:07:14;;;;;;;18.50;11.55;;;12.60;99.90;;;;;;5006756;28;20045;-52
2021/09/14 06:09:40;;;;;;;22.00;12.07;;;12.70;99.90;;;;;;4990477;28;20516;-52
2021/09/14 06:12:06;;;;;;;20.73;11.48;;;12.70;99.90;;;;;;5006186;28;20034;-51
2021/09/14 06:14:32;;;;;;;23.55;12.60;;;12.70;99.90;;;;;;5005253;28;20049;-52
2021/09/14 06:16:58;;;;;;;23.55;12.18;;;12.70;99.90;;;;;;4972864;28;20046;-50
2021/09/14 06:19:23;;;;;;;21.15;12.52;;;12.70;99.90;;;;;;4973727;28;20034;-49
2021/09/14 06:21:49;;;;;;;21.73;11.77;;;12.70;99.90;;;;;;4977203;28;20033;-53
2021/09/14 06:24:15;;;;;;;28.50;12.82;;;12.70;99.90;;;;;;5008639;28;20115;-52
2021/09/14 06:26:41;;;;;;;26.60;12.10;;;12.80;99.90;;;;;;5014348;28;20514;-52
2021/09/14 06:29:07;;;;;;;23.23;11.48;;;12.80;99.90;;;;;;4980157;28;20430;-55
2021/09/14 06:31:32;;;;;;;21.55;11.90;;;12.90;99.90;;;;;;5012057;28;20100;-50
2021/09/14 06:33:58;;;;;;;21.95;12.48;;;13.00;99.90;;;;;;5006834;28;20061;-53
2021/09/14 06:36:24;;;;;;;27.70;14.88;;;12.90;99.90;;;;;;5011880;28;20429;-53
2021/09/14 06:38:50;;;;;;;21.90;12.50;;;13.00;99.90;;;;;;5011925;28;20522;-53
2021/09/14 06:41:16;;;;;;;23.55;13.10;;;13.10;99.90;;;;;;4996151;28;20073;-51
2021/09/14 06:43:41;;;;;;;34.30;11.95;;;13.10;99.90;;;;;;5010511;28;20044;-54
2021/09/14 06:46:07;;;;;;;25.05;12.20;;;13.10;99.90;;;;;;5006064;28;20038;-54
2021/09/14 06:48:32;;;;;;;23.00;13.10;;;13.10;99.90;;;;;;5010446;28;20080;-53
2021/09/14 06:50:58;;;;;;;24.55;12.88;;;13.20;99.90;;;;;;5010474;28;20450;-50
2021/09/14 06:53:28;;;;;;;23.65;12.52;;;13.20;99.90;;;;;;4977423;28;20462;-53
2021/09/14 06:55:54;;;;;;;25.67;12.65;;;13.20;99.90;;;;;;5010600;28;20466;-56
2021/09/14 06:58:19;;;;;;;21.10;13.27;;;13.30;99.90;;;;;;5012026;28;20041;-55
2021/09/14 07:00:45;;;;;;;20.23;12.30;;;13.40;99.90;;;;;;5010361;28;20034;-53
2021/09/14 07:03:10;;;;;;;21.73;11.45;;;13.40;99.90;;;;;;5008878;28;20045;-54
2021/09/14 07:05:36;;;;;;;21.30;12.55;;;13.50;99.90;;;;;;4999432;28;20050;-55
2021/09/14 07:08:02;;;;;;;24.92;13.40;;;13.50;99.90;;;;;;5009939;28;20458;-55
2021/09/14 07:10:27;;;;;;;22.00;13.27;;;13.60;99.90;;;;;;4992226;28;20555;-52
2021/09/14 07:12:53;;;;;;;20.17;12.02;;;13.70;99.90;;;;;;5004663;28;20095;-52
2021/09/14 07:15:18;;;;;;;24.10;11.65;;;13.80;99.90;;;;;;5005801;28;20040;-51
2021/09/14 07:17:45;;;;;;;20.98;12.35;;;13.80;99.90;;;;;;5012051;28;20184;-52
2021/09/14 07:20:11;;;;;;;18.33;12.20;;;13.90;99.90;;;;;;5012739;28;20516;-54
2021/09/14 07:22:36;;;;;;;23.13;12.35;;;14.00;99.90;;;;;;4997880;28;20034;-54
2021/09/14 07:25:03;;;;;;;18.25;11.65;;;14.00;99.90;;;;;;5009050;28;20500;-55
2021/09/14 07:27:32;;;;;;;21.45;11.90;;;14.10;99.90;;;;;;5008475;28;20458;-53
2021/09/14 07:29:57;;;;;;;22.20;11.73;;;14.20;99.90;;;;;;4995542;28;20390;-51
2021/09/14 07:32:23;;;;;;;18.48;11.23;;;14.30;99.90;;;;;;5013188;28;20044;-53
2021/09/14 07:34:49;;;;;;;19.58;11.68;;;14.50;99.80;;;;;;5013466;28;20088;-54
2021/09/14 07:37:15;;;;;;;20.00;11.43;;;14.60;99.50;;;;;;5012841;28;20500;-54
2021/09/14 07:39:41;;;;;;;18.40;11.55;;;14.70;99.50;;;;;;5010226;28;20037;-52
2021/09/14 07:42:06;;;;;;;21.92;12.00;;;14.70;99.40;;;;;;5008354;28;20422;-53
2021/09/14 07:44:32;;;;;;;20.20;11.07;;;14.80;99.60;;;;;;5006176;28;20042;-50
2021/09/14 07:46:58;;;;;;;24.02;11.80;;;14.90;99.60;;;;;;5003381;28;20034;-52
2021/09/14 07:49:23;;;;;;;23.35;11.57;;;15.10;99.10;;;;;;4995149;28;20045;-52
2021/09/14 07:51:49;;;;;;;19.52;12.45;;;15.10;98.90;;;;;;5003686;28;20042;-53
2021/09/14 07:54:15;;;;;;;16.90;11.15;;;15.10;98.80;;;;;;4991490;28;20085;-52
2021/09/14 07:56:41;;;;;;;19.80;11.82;;;15.30;98.80;;;;;;4966930;28;20368;-53
2021/09/14 07:59:07;;;;;;;20.35;11.57;;;15.30;98.10;;;;;;4990551;28;20153;-52
2021/09/14 08:01:32;;;;;;;20.90;11.40;;;15.40;98.10;;;;;;4979798;28;20352;-54
2021/09/14 08:03:58;;;;;;;19.13;11.07;;;15.50;97.80;;;;;;5011169;28;20615;-52
2021/09/14 08:06:23;;;;;;;18.67;11.43;;;15.60;97.30;;;;;;4966906;28;20462;-50
2021/09/14 08:08:49;;;;;;;19.90;11.93;;;15.70;97.30;;;;;;5012518;28;20046;-55
2021/09/14 08:11:22;;;;;;;21.95;11.88;;;15.70;97.30;;;;;;5003385;28;20081;-53
2021/09/14 08:13:50;;;;;;;20.60;12.40;;;15.80;97.10;;;;;;4992670;28;20100;-49
2021/09/14 08:16:17;;;;;;;15.70;11.07;;;15.90;96.70;;;;;;4987533;28;20493;-52
2021/09/14 08:18:43;;;;;;;20.05;11.57;;;16.00;96.80;;;;;;5003586;28;20376;-53
2021/09/14 08:21:09;;;;;;;17.05;10.88;;;16.10;96.70;;;;;;4966579;28;20476;-50
2021/09/14 08:23:34;;;;;;;19.98;11.57;;;16.20;96.70;;;;;;4993009;28;20076;-54
2021/09/14 08:26:02;;;;;;;14.50;9.80;;;16.30;96.20;;;;;;5010242;28;20056;-51
2021/09/14 08:28:29;;;;;;;22.67;11.10;;;16.40;95.90;;;;;;5010639;28;20045;-55
2021/09/14 08:30:56;;;;;;;15.18;9.18;;;16.50;95.50;;;;;;5012945;28;20038;-56
2021/09/14 08:33:22;;;;;;;17.83;10.45;;;16.60;95.20;;;;;;4980752;28;20038;-55
2021/09/14 08:35:48;;;;;;;15.80;10.02;;;16.70;95.10;;;;;;5011957;28;20045;-54
2021/09/14 08:38:14;;;;;;;14.65;10.43;;;16.80;95.20;;;;;;5002133;28;20034;-55
2021/09/14 08:40:42;;;;;;;15.77;8.35;;;16.80;94.70;;;;;;4968271;28;20116;-55
2021/09/14 08:43:12;;;;;;;13.85;8.77;;;16.90;93.70;;;;;;5000165;28;20117;-54
2021/09/14 08:45:38;;;;;;;16.33;9.80;;;16.80;94.40;;;;;;5000777;28;20045;-54
2021/09/14 08:48:05;;;;;;;18.58;9.90;;;16.90;94.40;;;;;;5001701;28;20042;-51
2021/09/14 08:50:32;;;;;;;14.15;9.15;;;16.90;94.20;;;;;;4979877;28;20038;-54
2021/09/14 08:52:58;;;;;;;16.58;9.43;;;16.90;94.00;;;;;;4997863;28;20034;-54
2021/09/14 08:55:24;;;;;;;21.10;9.77;;;16.90;93.80;;;;;;4979321;28;20438;-51
2021/09/14 08:57:51;;;;;;;13.73;9.30;;;16.90;94.30;;;;;;4996311;28;20045;-52
2021/09/14 09:00:32;;;;;;;16.63;9.23;;;16.90;94.50;;;;;;4979989;28;20518;-54
2021/09/14 09:02:59;;;;;;;14.90;9.13;;;16.90;94.60;;;;;;4997193;28;20095;-53
2021/09/14 09:05:39;;;;;;;16.85;10.10;;;16.90;94.80;;;;;;5000705;28;20038;-54
2021/09/14 09:08:19;;;;;;;15.60;9.82;;;16.90;94.90;;;;;;4998238;28;20039;-54
2021/09/14 09:11:05;;;;;;;15.07;9.98;;;16.90;94.40;;;;;;5008058;28;20034;-53
2021/09/14 09:13:43;;;;;;;16.90;9.90;;;16.90;94.20;;;;;;4990486;28;20035;-53
2021/09/14 09:16:25;;;;;;;13.55;9.55;;;16.90;94.20;;;;;;4995681;28;20129;-52
2021/09/14 09:18:53;;;;;;;15.07;10.05;;;16.90;94.60;;;;;;5011121;28;20097;-50
2021/09/14 09:21:18;;;;;;;13.40;9.40;;;17.00;94.50;;;;;;4995560;28;20041;-53
2021/09/14 09:23:53;;;;;;;15.95;10.20;;;17.10;94.60;;;;;;5002285;28;20077;-51
2021/09/14 09:26:28;;;;;;;14.80;10.18;;;17.10;94.40;;;;;;4979025;28;20041;-55
2021/09/14 09:28:58;;;;;;;13.82;9.90;;;17.20;94.10;;;;;;5010547;28;20482;-53
2021/09/14 09:31:24;;;;;;;16.00;9.50;;;17.20;94.50;;;;;;4990348;28;20129;-50
2021/09/14 09:34:03;;;;;;;15.73;9.73;;;17.20;94.60;;;;;;4997511;28;20121;-54
2021/09/14 09:36:31;;;;;;;16.88;10.45;;;17.30;94.80;;;;;;4999496;28;20029;-56
2021/09/14 09:39:00;;;;;;;15.63;9.95;;;17.40;94.30;;;;;;4993004;28;20474;-55
2021/09/14 09:41:25;;;;;;;13.95;10.40;;;17.60;93.70;;;;;;4994342;28;20084;-55
2021/09/14 09:43:51;;;;;;;14.77;9.82;;;17.70;93.70;;;;;;4974106;28;20077;-56
2021/09/14 09:46:21;;;;;;;14.15;9.55;;;17.80;93.70;;;;;;5007607;28;20411;-56
2021/09/14 09:48:48;;;;;;;13.95;9.13;;;17.90;93.50;;;;;;4999922;28;20035;-54
2021/09/14 09:51:16;;;;;;;14.57;9.55;;;18.00;93.10;;;;;;4980096;28;20081;-50
2021/09/14 09:53:41;;;;;;;14.25;9.27;;;18.10;92.40;;;;;;5012638;28;20414;-54
2021/09/14 09:56:08;;;;;;;14.85;9.25;;;18.20;92.80;;;;;;4995761;28;20045;-53
2021/09/14 09:58:34;;;;;;;13.48;9.77;;;18.30;92.90;;;;;;5010351;28;20534;-52
2021/09/14 10:01:15;;;;;;;14.45;9.15;;;18.40;92.40;;;;;;4990825;28;20045;-51
2021/09/14 10:04:06;;;;;;;16.53;10.00;;;18.50;92.20;;;;;;4998721;28;20053;-53
2021/09/14 10:06:52;;;;;;;12.27;9.20;;;18.60;91.40;;;;;;4979499;28;20308;-55
2021/09/14 10:09:20;;;;;;;12.90;8.85;;;18.70;91.10;;;;;;4990731;28;20038;-55
2021/09/14 10:11:56;;;;;;;14.32;9.25;;;18.80;90.90;;;;;;4976969;28;20052;-56
2021/09/14 10:14:22;;;;;;;13.10;8.98;;;18.90;90.60;;;;;;5012213;28;20574;-56
2021/09/14 10:16:49;;;;;;;12.63;9.23;;;19.00;90.70;;;;;;4994010;28;20128;-55
2021/09/14 10:19:29;;;;;;;14.35;8.77;;;19.10;90.50;;;;;;4971965;28;20137;-56
2021/09/14 10:22:02;;;;;;;12.65;9.00;;;19.20;88.50;;;;;;4992814;28;20046;-56
2021/09/14 10:24:29;;;;;;;11.93;8.75;;;19.20;90.10;;;;;;4999246;28;20046;-56
2021/09/14 10:27:12;;;;;;;14.32;9.05;;;19.30;88.60;;;;;;4993907;28;20071;-56
2021/09/14 10:29:40;;;;;;;14.60;8.55;;;19.40;90.00;;;;;;5003233;28;20048;-56
2021/09/14 10:32:07;;;;;;;14.40;8.98;;;19.40;89.00;;;;;;5012567;28;20048;-56
2021/09/14 10:34:33;;;;;;;13.10;8.38;;;19.50;88.40;;;;;;4989928;28;20037;-53
2021/09/14 10:37:05;;;;;;;15.95;8.10;;;19.50;88.80;;;;;;5012015;28;20049;-55
2021/09/14 10:39:41;;;;;;;11.23;8.32;;;19.60;89.10;;;;;;5011766;28;20406;-56
2021/09/14 10:42:20;;;;;;;11.50;8.60;;;19.70;88.70;;;;;;5020375;28;20045;-54
2021/09/14 10:44:51;;;;;;;11.50;8.30;;;19.80;88.40;;;;;;5015845;28;20034;-55
2021/09/14 10:47:19;;;;;;;11.13;8.48;;;19.90;87.50;;;;;;5004069;28;20042;-55
2021/09/14 10:50:04;;;;;;;13.52;8.65;;;19.90;88.50;;;;;;4984477;28;20044;-56
2021/09/14 10:52:32;;;;;;;12.60;9.02;;;20.00;87.90;;;;;;4992840;28;20444;-55
2021/09/14 10:55:03;;;;;;;12.10;9.30;;;20.00;86.60;;;;;;5007095;28;20078;-54
2021/09/14 10:57:40;;;;;;;13.82;8.93;;;20.00;86.00;;;;;;4983457;28;20050;-55
2021/09/14 11:00:09;;;;;;;13.57;9.88;;;20.00;86.60;;;;;;5013562;28;20058;-55
2021/09/14 11:02:35;;;;;;;12.35;8.95;;;20.10;87.80;;;;;;4978544;28;20117;-56
2021/09/14 11:05:01;;;;;;;13.85;9.50;;;20.10;87.40;;;;;;4980746;28;20054;-56
2021/09/14 11:07:30;;;;;;;14.77;9.23;;;20.20;87.20;;;;;;5009157;28;20053;-56
2021/09/14 11:10:02;;;;;;;12.25;9.10;;;20.30;86.40;;;;;;4984140;28;20475;-50
2021/09/14 11:12:32;;;;;;;11.65;8.93;;;20.40;86.80;;;;;;5012891;28;20034;-54
2021/09/14 11:15:01;;;;;;;11.75;8.55;;;20.50;86.20;;;;;;5008854;28;20491;-55
2021/09/14 11:17:32;;;;;;;11.70;8.32;;;20.50;85.90;;;;;;5002075;28;20049;-54
2021/09/14 11:20:19;;;;;;;13.25;8.50;;;20.60;83.90;;;;;;4990355;28;20046;-52
2021/09/14 11:22:49;;;;;;;11.27;8.75;;;20.60;85.00;;;;;;5016265;28;20033;-54
2021/09/14 11:25:17;;;;;;;13.20;8.82;;;20.70;83.00;;;;;;5005495;28;20061;-54
2021/09/14 11:28:04;;;;;;;12.27;8.40;;;20.70;82.60;;;;;;5013844;28;20049;-54
2021/09/14 11:30:31;;;;;;;10.82;8.13;;;20.70;84.20;;;;;;5015416;28;20060;-50
2021/09/14 11:32:59;;;;;;;12.15;8.32;;;20.70;84.10;;;;;;4996118;28;20040;-56
2021/09/14 11:35:30;;;;;;;13.73;8.77;;;20.80;84.20;;;;;;4978190;28;20050;-54
2021/09/14 11:38:02;;;;;;;11.20;8.45;;;20.90;83.80;;;;;;4992491;28;20462;-53
2021/09/14 11:40:29;;;;;;;11.10;8.07;;;21.00;84.30;;;;;;5007197;28;20042;-52
2021/09/14 11:42:57;;;;;;;16.08;9.75;;;21.10;82.80;;;;;;4991750;28;20042;-54
2021/09/14 11:45:25;;;;;;;10.98;8.07;;;21.20;81.80;;;;;;4983911;28;20038;-55
2021/09/14 11:47:52;;;;;;;11.07;7.85;;;21.20;83.40;;;;;;4996012;28;20045;-56
2021/09/14 11:50:24;;;;;;;13.15;8.52;;;21.30;83.70;;;;;;5021941;28;20045;-54
2021/09/14 11:53:03;;;;;;;14.57;9.25;;;21.40;80.90;;;;;;5001037;28;20050;-53
2021/09/14 11:55:29;;;;;;;13.63;9.23;;;21.50;80.70;;;;;;4997450;28;20400;-54
2021/09/14 11:57:56;;;;;;;12.82;8.88;;;21.40;79.80;;;;;;4985868;28;20125;-52
2021/09/14 12:00:33;;;;;;;12.23;8.90;;;21.40;81.40;;;;;;4981301;28;20042;-54
2021/09/14 12:02:59;;;;;;;13.68;10.20;;;21.50;80.10;;;;;;4995478;28;20082;-56
2021/09/14 12:05:25;;;;;;;11.57;9.02;;;21.50;80.90;;;;;;4963508;28;20524;-54
2021/09/14 12:07:58;;;;;;;14.25;8.98;;;21.50;79.90;;;;;;4996408;28;20487;-56
2021/09/14 12:10:25;;;;;;;10.93;8.98;;;21.50;79.50;;;;;;4991107;28;20044;-54
2021/09/14 12:12:55;;;;;;;11.15;9.13;;;21.50;79.80;;;;;;5004334;28;20045;-56
2021/09/14 12:15:22;;;;;;;11.10;8.98;;;21.50;79.00;;;;;;4964712;28;20042;-56
2021/09/14 12:17:48;;;;;;;14.82;8.88;;;21.50;79.80;;;;;;5015865;28;20033;-56
2021/09/14 12:20:14;;;;;;;12.13;8.52;;;21.50;80.80;;;;;;5020032;28;20041;-54
2021/09/14 12:22:40;;;;;;;15.45;10.13;;;21.50;81.30;;;;;;5026619;28;20048;-55
2021/09/14 12:25:07;;;;;;;11.02;8.60;;;21.50;80.40;;;;;;5011547;28;20038;-57
2021/09/14 12:27:32;;;;;;;13.43;10.57;;;21.50;81.00;;;;;;5018187;28;20046;-55
2021/09/14 12:29:58;;;;;;;13.73;10.45;;;21.60;79.50;;;;;;4987658;28;20402;-56
2021/09/14 12:32:24;;;;;;;14.50;9.85;;;21.60;79.00;;;;;;5002988;28;20455;-56
2021/09/14 12:34:49;;;;;;;13.65;10.75;;;21.60;79.00;;;;;;5023078;28;20112;-56
2021/09/14 12:37:16;;;;;;;13.95;10.25;;;21.70;78.20;;;;;;5027389;28;20041;-56
2021/09/14 12:39:41;;;;;;;13.90;9.80;;;21.70;79.50;;;;;;4979747;28;20034;-56
2021/09/14 12:42:07;;;;;;;12.27;9.60;;;21.70;78.80;;;;;;4991559;28;20041;-56
2021/09/14 12:44:32;;;;;;;13.07;9.52;;;21.80;78.70;;;;;;5007595;28;20070;-53
2021/09/14 12:46:58;;;;;;;14.05;8.52;;;21.80;79.70;;;;;;5019340;28;20554;-55
2021/09/14 12:49:25;;;;;;;13.13;10.27;;;21.80;80.70;;;;;;4996116;28;20038;-52
2021/09/14 12:51:50;;;;;;;13.90;9.60;;;21.90;79.00;;;;;;4989256;28;20045;-53
2021/09/14 12:54:16;;;;;;;12.40;9.55;;;21.90;79.90;;;;;;5003645;28;20038;-53
2021/09/14 12:56:42;;;;;;;13.15;9.27;;;22.00;76.90;;;;;;5003256;28;20042;-55
2021/09/14 12:59:08;;;;;;;13.60;9.32;;;22.00;78.60;;;;;;5001746;28;20108;-54
2021/09/14 13:01:34;;;;;;;11.07;9.13;;;21.90;77.90;;;;;;5006906;28;20038;-51
2021/09/14 13:03:59;;;;;;;10.95;8.95;;;21.90;78.10;;;;;;4986690;28;20104;-54
2021/09/14 13:06:25;;;;;;;11.52;8.60;;;21.90;78.60;;;;;;5000806;28;20042;-54
2021/09/14 13:08:51;;;;;;;11.10;8.32;;;22.00;78.90;;;;;;4985446;28;20117;-55
2021/09/14 13:11:17;;;;;;;12.45;9.23;;;22.00;78.90;;;;;;4995536;28;20041;-56
2021/09/14 13:16:27;;;;;;;13.85;8.57;;;22.00;77.50;;;;;;5008803;28;20052;-56
2021/09/14 13:18:53;;;;;;;11.38;10.05;;;22.10;77.20;;;;;;5009654;28;21095;-56
2021/09/14 13:21:20;;;;;;;11.32;9.88;;;22.20;76.70;;;;;;5007861;28;20057;-56
2021/09/14 13:23:48;;;;;;;10.95;8.82;;;22.10;76.60;;;;;;4992842;28;20409;-55
2021/09/14 13:26:14;;;;;;;10.27;8.00;;;22.10;77.00;;;;;;4987327;28;20077;-54
2021/09/14 13:28:40;;;;;;;11.32;9.02;;;22.20;76.70;;;;;;4994075;28;20046;-54
2021/09/14 13:31:08;;;;;;;11.90;8.82;;;22.20;75.60;;;;;;4972115;28;20041;-54
2021/09/14 13:33:34;;;;;;;11.90;9.30;;;22.10;75.20;;;;;;5009862;28;20741;-55